This is the latest recevied weather packets stored in our database for station/object WE0DX-1. If no packets are shown the sender has not sent any weather packets the latest 1 day(s).
| Time | Temp. | Humidity | Pressure | Rain* | Wind** | Luminosity | Snow |
|---|---|---|---|---|---|---|---|
| 1777977621 | 11.67° C | 58% | 1008.5 hPa | 0 mm | 0.89 m/s, 20° | 0 W/m² | - |
| 1777977318 | 11.67° C | 58% | 1008.7 hPa | 0 mm | 0.89 m/s, 52° | 0 W/m² | - |
| 1777977015 | 11.11° C | 60% | 1008.6 hPa | 0 mm | 0 m/s | 0 W/m² | - |
| 1777976712 | 11.11° C | 61% | 1008.7 hPa | 0 mm | 0 m/s | 0 W/m² | - |
| 1777976410 | 11.11° C | 61% | 1008.7 hPa | 0 mm | 0.45 m/s, 47° | 0 W/m² | - |
| 1777976108 | 11.11° C | 61% | 1009.3 hPa | 0 mm | 0 m/s | 0 W/m² | - |
| 1777975804 | 11.11° C | 61% | 1009 hPa | 0 mm | 0.45 m/s, 46° | 0 W/m² | - |
| 1777975501 | 11.67° C | 61% | 1009.3 hPa | 0 mm | 1.34 m/s, 346° | 0 W/m² | - |
| 1777975197 | 11.67° C | 61% | 1009.3 hPa | 0 mm | 0 m/s | 0 W/m² | - |
| 1777974894 | 11.67° C | 61% | 1009.3 hPa | 0 mm | 0.45 m/s, 42° | 0 W/m² | - |
| 1777974590 | 11.67° C | 61% | 1008.7 hPa | 0 mm | 0 m/s | 0 W/m² | - |
| 1777974288 | 11.67° C | 60% | 1009.4 hPa | 0 mm | 0 m/s | 0 W/m² | - |
| 1777973983 | 11.67° C | 60% | 1009.2 hPa | 0 mm | 0 m/s | 0 W/m² | - |
| 1777973680 | 11.67° C | 61% | 1009.2 hPa | 0 mm | 0 m/s | 0 W/m² | - |
| 1777973377 | 11.67° C | 60% | 1008.8 hPa | 0 mm | 0.45 m/s, 41° | 0 W/m² | - |
| 1777973075 | 11.67° C | 60% | 1008.3 hPa | 0 mm | 0.89 m/s, 50° | 0 W/m² | - |
| 1777972773 | 11.67° C | 60% | 1007.7 hPa | 0 mm | 0.89 m/s, 47° | 0 W/m² | - |
| 1777972470 | 11.11° C | 61% | 1007.8 hPa | 0 mm | 0 m/s | 0 W/m² | - |
| 1777972168 | 11.11° C | 62% | 1007.6 hPa | 0 mm | 0.45 m/s, 51° | 0 W/m² | - |
| 1777971866 | 11.11° C | 62% | 1007.5 hPa | 0 mm | 0 m/s | 0 W/m² | - |
| 1777971563 | 11.11° C | 64% | 1007.4 hPa | 0 mm | 0.89 m/s, 320° | 0 W/m² | - |
| 1777971261 | 11.11° C | 65% | 1007.5 hPa | 0 mm | 1.34 m/s, 358° | 0 W/m² | - |
| 1777970959 | 11.11° C | 66% | 1007.4 hPa | 0 mm | 0 m/s | 0 W/m² | - |
| 1777970656 | 11.11° C | 66% | 1007.3 hPa | 0 mm | 0.89 m/s, 53° | 0 W/m² | - |
| 1777970354 | 11.11° C | 66% | 1007.5 hPa | 0 mm | 0.89 m/s, 46° | 0 W/m² | - |
* Rain latest hour (hover to see other rain measurements)
** Current wind speed in m/s (hover to see current wind gust speed)